sensor_id;sensor_type;location;lat;lon;timestamp;P1;durP1;ratioP1;P2;durP2;ratioP2
72273;SDS011;60208;48.692;8.948;2023-02-28T00:00:41;3.22;;;2.45;;
72273;SDS011;60208;48.692;8.948;2023-02-28T00:03:06;4.25;;;2.60;;
72273;SDS011;60208;48.692;8.948;2023-02-28T00:05:32;4.35;;;2.67;;
72273;SDS011;60208;48.692;8.948;2023-02-28T00:07:57;5.03;;;2.55;;
72273;SDS011;60208;48.692;8.948;2023-02-28T00:10:24;3.55;;;2.67;;
72273;SDS011;60208;48.692;8.948;2023-02-28T00:12:51;4.93;;;2.75;;
72273;SDS011;60208;48.692;8.948;2023-02-28T00:15:17;3.80;;;2.30;;
72273;SDS011;60208;48.692;8.948;2023-02-28T00:17:43;3.15;;;2.80;;
72273;SDS011;60208;48.692;8.948;2023-02-28T00:20:09;5.70;;;2.72;;
72273;SDS011;60208;48.692;8.948;2023-02-28T00:22:40;3.97;;;2.50;;
72273;SDS011;60208;48.692;8.948;2023-02-28T00:25:07;4.22;;;2.80;;
72273;SDS011;60208;48.692;8.948;2023-02-28T00:27:34;8.02;;;2.80;;
72273;SDS011;60208;48.692;8.948;2023-02-28T00:30:00;4.00;;;2.65;;
72273;SDS011;60208;48.692;8.948;2023-02-28T00:32:26;3.17;;;2.58;;
72273;SDS011;60208;48.692;8.948;2023-02-28T00:34:51;5.68;;;2.78;;
72273;SDS011;60208;48.692;8.948;2023-02-28T00:37:17;4.88;;;2.47;;
72273;SDS011;60208;48.692;8.948;2023-02-28T00:39:42;4.65;;;2.80;;
72273;SDS011;60208;48.692;8.948;2023-02-28T00:42:08;5.18;;;2.63;;
72273;SDS011;60208;48.692;8.948;2023-02-28T00:44:33;3.70;;;2.72;;
72273;SDS011;60208;48.692;8.948;2023-02-28T00:46:59;4.45;;;2.85;;
72273;SDS011;60208;48.692;8.948;2023-02-28T00:49:25;4.47;;;2.67;;
72273;SDS011;60208;48.692;8.948;2023-02-28T00:51:51;4.20;;;2.70;;
72273;SDS011;60208;48.692;8.948;2023-02-28T00:54:16;3.90;;;2.45;;
72273;SDS011;60208;48.692;8.948;2023-02-28T00:56:42;3.85;;;2.83;;
72273;SDS011;60208;48.692;8.948;2023-02-28T00:59:07;5.15;;;2.85;;
72273;SDS011;60208;48.692;8.948;2023-02-28T01:01:33;4.40;;;2.80;;
72273;SDS011;60208;48.692;8.948;2023-02-28T01:03:58;3.63;;;2.63;;
72273;SDS011;60208;48.692;8.948;2023-02-28T01:06:23;3.50;;;2.63;;
72273;SDS011;60208;48.692;8.948;2023-02-28T01:08:49;4.90;;;2.80;;
72273;SDS011;60208;48.692;8.948;2023-02-28T01:11:15;7.82;;;2.60;;
72273;SDS011;60208;48.692;8.948;2023-02-28T01:13:42;6.53;;;2.80;;
72273;SDS011;60208;48.692;8.948;2023-02-28T01:16:08;6.18;;;2.90;;
72273;SDS011;60208;48.692;8.948;2023-02-28T01:18:33;5.30;;;3.10;;
72273;SDS011;60208;48.692;8.948;2023-02-28T01:21:02;5.18;;;2.58;;
72273;SDS011;60208;48.692;8.948;2023-02-28T01:23:29;4.10;;;2.78;;
72273;SDS011;60208;48.692;8.948;2023-02-28T01:25:54;4.65;;;2.78;;
72273;SDS011;60208;48.692;8.948;2023-02-28T01:28:20;3.45;;;2.80;;
72273;SDS011;60208;48.692;8.948;2023-02-28T01:30:49;4.82;;;2.80;;
72273;SDS011;60208;48.692;8.948;2023-02-28T01:33:14;3.90;;;3.03;;
72273;SDS011;60208;48.692;8.948;2023-02-28T01:35:40;4.65;;;2.85;;
72273;SDS011;60208;48.692;8.948;2023-02-28T01:38:05;4.13;;;3.03;;
72273;SDS011;60208;48.692;8.948;2023-02-28T01:40:30;4.50;;;2.80;;
72273;SDS011;60208;48.692;8.948;2023-02-28T01:42:56;6.63;;;2.80;;
72273;SDS011;60208;48.692;8.948;2023-02-28T01:48:01;5.38;;;2.90;;
72273;SDS011;60208;48.692;8.948;2023-02-28T01:50:29;5.45;;;2.75;;
72273;SDS011;60208;48.692;8.948;2023-02-28T01:52:57;4.85;;;2.97;;
72273;SDS011;60208;48.692;8.948;2023-02-28T01:55:25;7.50;;;2.83;;
72273;SDS011;60208;48.692;8.948;2023-02-28T01:57:54;3.85;;;2.75;;
72273;SDS011;60208;48.692;8.948;2023-02-28T02:00:23;5.28;;;3.20;;
72273;SDS011;60208;48.692;8.948;2023-02-28T02:02:53;4.80;;;3.38;;
72273;SDS011;60208;48.692;8.948;2023-02-28T02:05:24;5.78;;;3.00;;
72273;SDS011;60208;48.692;8.948;2023-02-28T02:07:52;5.13;;;3.28;;
72273;SDS011;60208;48.692;8.948;2023-02-28T02:16:16;4.78;;;3.13;;
72273;SDS011;60208;48.692;8.948;2023-02-28T02:32:54;6.43;;;3.75;;
72273;SDS011;60208;48.692;8.948;2023-02-28T02:38:07;6.75;;;3.90;;
72273;SDS011;60208;48.692;8.948;2023-02-28T02:40:38;7.32;;;3.90;;
72273;SDS011;60208;48.692;8.948;2023-02-28T02:43:13;4.30;;;3.65;;
72273;SDS011;60208;48.692;8.948;2023-02-28T02:45:47;8.10;;;4.13;;
72273;SDS011;60208;48.692;8.948;2023-02-28T02:48:16;5.70;;;3.92;;
72273;SDS011;60208;48.692;8.948;2023-02-28T02:50:45;4.82;;;3.50;;
72273;SDS011;60208;48.692;8.948;2023-02-28T02:53:17;4.93;;;3.53;;
72273;SDS011;60208;48.692;8.948;2023-02-28T02:55:44;5.55;;;3.75;;
72273;SDS011;60208;48.692;8.948;2023-02-28T02:58:16;5.57;;;3.78;;
72273;SDS011;60208;48.692;8.948;2023-02-28T03:00:45;6.47;;;4.20;;
72273;SDS011;60208;48.692;8.948;2023-02-28T03:03:13;5.97;;;3.90;;
72273;SDS011;60208;48.692;8.948;2023-02-28T03:05:47;5.82;;;3.80;;
72273;SDS011;60208;48.692;8.948;2023-02-28T03:08:14;7.25;;;4.25;;
72273;SDS011;60208;48.692;8.948;2023-02-28T03:10:43;6.32;;;4.03;;
72273;SDS011;60208;48.692;8.948;2023-02-28T03:18:32;6.95;;;3.70;;
72273;SDS011;60208;48.692;8.948;2023-02-28T03:26:30;6.68;;;3.67;;
72273;SDS011;60208;48.692;8.948;2023-02-28T03:29:13;6.40;;;4.32;;
72273;SDS011;60208;48.692;8.948;2023-02-28T03:31:44;6.45;;;4.18;;
72273;SDS011;60208;48.692;8.948;2023-02-28T03:36:52;7.05;;;4.30;;
72273;SDS011;60208;48.692;8.948;2023-02-28T03:39:23;6.68;;;4.40;;
72273;SDS011;60208;48.692;8.948;2023-02-28T03:41:52;6.28;;;4.55;;
72273;SDS011;60208;48.692;8.948;2023-02-28T03:44:22;7.05;;;4.20;;
72273;SDS011;60208;48.692;8.948;2023-02-28T03:47:00;6.00;;;4.30;;
72273;SDS011;60208;48.692;8.948;2023-02-28T03:49:46;7.35;;;4.65;;
72273;SDS011;60208;48.692;8.948;2023-02-28T03:52:14;7.88;;;4.45;;
72273;SDS011;60208;48.692;8.948;2023-02-28T03:54:43;6.22;;;4.20;;
72273;SDS011;60208;48.692;8.948;2023-02-28T03:57:26;5.50;;;3.92;;
72273;SDS011;60208;48.692;8.948;2023-02-28T03:59:56;7.32;;;4.47;;
72273;SDS011;60208;48.692;8.948;2023-02-28T04:02:24;7.10;;;4.50;;
72273;SDS011;60208;48.692;8.948;2023-02-28T04:04:50;5.90;;;4.72;;
72273;SDS011;60208;48.692;8.948;2023-02-28T04:07:16;6.93;;;4.28;;
72273;SDS011;60208;48.692;8.948;2023-02-28T04:09:42;7.10;;;4.70;;
72273;SDS011;60208;48.692;8.948;2023-02-28T04:12:07;7.88;;;5.43;;
72273;SDS011;60208;48.692;8.948;2023-02-28T04:14:33;7.80;;;5.03;;
72273;SDS011;60208;48.692;8.948;2023-02-28T04:16:59;7.35;;;4.68;;
72273;SDS011;60208;48.692;8.948;2023-02-28T04:19:24;8.75;;;5.15;;
72273;SDS011;60208;48.692;8.948;2023-02-28T04:21:50;6.15;;;4.75;;
72273;SDS011;60208;48.692;8.948;2023-02-28T04:24:18;6.22;;;4.43;;
72273;SDS011;60208;48.692;8.948;2023-02-28T04:26:45;5.68;;;4.32;;
72273;SDS011;60208;48.692;8.948;2023-02-28T04:29:13;8.50;;;4.72;;
72273;SDS011;60208;48.692;8.948;2023-02-28T04:31:40;7.85;;;4.78;;
72273;SDS011;60208;48.692;8.948;2023-02-28T04:34:06;6.53;;;4.85;;
72273;SDS011;60208;48.692;8.948;2023-02-28T04:36:32;6.88;;;4.78;;
72273;SDS011;60208;48.692;8.948;2023-02-28T04:38:57;6.57;;;4.90;;
72273;SDS011;60208;48.692;8.948;2023-02-28T04:41:22;6.53;;;4.63;;
72273;SDS011;60208;48.692;8.948;2023-02-28T04:43:48;7.05;;;4.88;;
72273;SDS011;60208;48.692;8.948;2023-02-28T04:46:13;6.85;;;4.95;;
72273;SDS011;60208;48.692;8.948;2023-02-28T04:48:39;7.70;;;4.50;;
72273;SDS011;60208;48.692;8.948;2023-02-28T04:51:06;7.45;;;5.57;;
72273;SDS011;60208;48.692;8.948;2023-02-28T04:53:33;6.75;;;4.78;;
72273;SDS011;60208;48.692;8.948;2023-02-28T04:55:59;10.32;;;5.35;;
72273;SDS011;60208;48.692;8.948;2023-02-28T04:58:25;8.25;;;5.00;;
72273;SDS011;60208;48.692;8.948;2023-02-28T05:00:54;7.15;;;4.70;;
72273;SDS011;60208;48.692;8.948;2023-02-28T05:03:19;8.00;;;4.57;;
72273;SDS011;60208;48.692;8.948;2023-02-28T05:05:47;6.55;;;4.50;;
72273;SDS011;60208;48.692;8.948;2023-02-28T05:08:12;6.97;;;5.03;;
72273;SDS011;60208;48.692;8.948;2023-02-28T05:10:37;6.68;;;4.63;;
72273;SDS011;60208;48.692;8.948;2023-02-28T05:13:03;6.85;;;5.07;;
72273;SDS011;60208;48.692;8.948;2023-02-28T05:15:29;8.98;;;5.43;;
72273;SDS011;60208;48.692;8.948;2023-02-28T05:17:54;10.43;;;5.03;;
72273;SDS011;60208;48.692;8.948;2023-02-28T05:20:19;6.25;;;4.85;;
72273;SDS011;60208;48.692;8.948;2023-02-28T05:22:46;8.40;;;5.20;;
72273;SDS011;60208;48.692;8.948;2023-02-28T05:25:12;6.22;;;4.72;;
72273;SDS011;60208;48.692;8.948;2023-02-28T05:27:43;7.70;;;4.97;;
72273;SDS011;60208;48.692;8.948;2023-02-28T05:30:09;7.90;;;5.28;;
72273;SDS011;60208;48.692;8.948;2023-02-28T05:32:39;7.60;;;5.43;;
72273;SDS011;60208;48.692;8.948;2023-02-28T05:35:08;8.67;;;5.30;;
72273;SDS011;60208;48.692;8.948;2023-02-28T05:37:37;11.52;;;5.63;;
72273;SDS011;60208;48.692;8.948;2023-02-28T05:40:03;9.20;;;5.88;;
72273;SDS011;60208;48.692;8.948;2023-02-28T05:42:31;10.13;;;5.90;;
72273;SDS011;60208;48.692;8.948;2023-02-28T05:44:56;8.10;;;5.60;;
72273;SDS011;60208;48.692;8.948;2023-02-28T05:47:22;8.35;;;5.70;;
72273;SDS011;60208;48.692;8.948;2023-02-28T05:49:47;8.02;;;5.65;;
72273;SDS011;60208;48.692;8.948;2023-02-28T05:52:13;8.20;;;6.65;;
72273;SDS011;60208;48.692;8.948;2023-02-28T05:54:38;7.10;;;5.18;;
72273;SDS011;60208;48.692;8.948;2023-02-28T05:57:03;9.10;;;5.80;;
72273;SDS011;60208;48.692;8.948;2023-02-28T05:59:29;8.20;;;6.10;;
72273;SDS011;60208;48.692;8.948;2023-02-28T06:01:54;9.88;;;5.97;;
72273;SDS011;60208;48.692;8.948;2023-02-28T06:04:20;13.23;;;6.20;;
72273;SDS011;60208;48.692;8.948;2023-02-28T06:06:49;8.05;;;5.80;;
72273;SDS011;60208;48.692;8.948;2023-02-28T06:09:15;8.20;;;5.90;;
72273;SDS011;60208;48.692;8.948;2023-02-28T06:11:41;8.38;;;6.43;;
72273;SDS011;60208;48.692;8.948;2023-02-28T06:14:07;6.57;;;5.70;;
72273;SDS011;60208;48.692;8.948;2023-02-28T06:16:34;8.95;;;6.00;;
72273;SDS011;60208;48.692;8.948;2023-02-28T06:19:01;9.73;;;6.47;;
72273;SDS011;60208;48.692;8.948;2023-02-28T06:21:28;8.63;;;6.35;;
72273;SDS011;60208;48.692;8.948;2023-02-28T06:23:55;7.55;;;5.95;;
72273;SDS011;60208;48.692;8.948;2023-02-28T06:26:21;10.25;;;6.97;;
72273;SDS011;60208;48.692;8.948;2023-02-28T06:28:47;8.88;;;6.68;;
72273;SDS011;60208;48.692;8.948;2023-02-28T06:31:14;8.95;;;6.60;;
72273;SDS011;60208;48.692;8.948;2023-02-28T06:33:41;8.57;;;6.38;;
72273;SDS011;60208;48.692;8.948;2023-02-28T06:36:07;8.50;;;6.40;;
72273;SDS011;60208;48.692;8.948;2023-02-28T06:38:33;9.27;;;6.70;;
72273;SDS011;60208;48.692;8.948;2023-02-28T06:40:59;9.10;;;6.55;;
72273;SDS011;60208;48.692;8.948;2023-02-28T06:43:27;11.52;;;7.15;;
72273;SDS011;60208;48.692;8.948;2023-02-28T06:45:54;11.68;;;6.85;;
72273;SDS011;60208;48.692;8.948;2023-02-28T06:48:20;9.30;;;7.03;;
72273;SDS011;60208;48.692;8.948;2023-02-28T06:50:46;10.85;;;7.00;;
72273;SDS011;60208;48.692;8.948;2023-02-28T06:53:11;11.18;;;7.25;;
72273;SDS011;60208;48.692;8.948;2023-02-28T06:55:37;8.90;;;6.40;;
72273;SDS011;60208;48.692;8.948;2023-02-28T06:58:03;9.40;;;6.82;;
72273;SDS011;60208;48.692;8.948;2023-02-28T07:00:39;8.57;;;6.65;;
72273;SDS011;60208;48.692;8.948;2023-02-28T07:03:05;10.80;;;6.93;;
72273;SDS011;60208;48.692;8.948;2023-02-28T07:05:30;8.90;;;6.95;;
72273;SDS011;60208;48.692;8.948;2023-02-28T07:07:58;9.20;;;6.68;;
72273;SDS011;60208;48.692;8.948;2023-02-28T07:10:23;9.63;;;6.85;;
72273;SDS011;60208;48.692;8.948;2023-02-28T07:12:48;9.85;;;6.82;;
72273;SDS011;60208;48.692;8.948;2023-02-28T07:15:14;10.00;;;6.93;;
72273;SDS011;60208;48.692;8.948;2023-02-28T07:17:39;10.02;;;7.03;;
72273;SDS011;60208;48.692;8.948;2023-02-28T07:20:04;11.18;;;6.47;;
72273;SDS011;60208;48.692;8.948;2023-02-28T07:22:30;9.88;;;6.72;;
72273;SDS011;60208;48.692;8.948;2023-02-28T07:24:56;9.05;;;6.55;;
72273;SDS011;60208;48.692;8.948;2023-02-28T07:27:21;9.48;;;6.65;;
72273;SDS011;60208;48.692;8.948;2023-02-28T07:29:50;8.27;;;6.60;;
72273;SDS011;60208;48.692;8.948;2023-02-28T07:32:16;9.73;;;6.88;;
72273;SDS011;60208;48.692;8.948;2023-02-28T07:34:42;8.60;;;6.20;;
72273;SDS011;60208;48.692;8.948;2023-02-28T07:37:07;10.63;;;6.85;;
72273;SDS011;60208;48.692;8.948;2023-02-28T07:39:33;12.50;;;6.95;;
72273;SDS011;60208;48.692;8.948;2023-02-28T07:41:58;11.43;;;7.18;;
72273;SDS011;60208;48.692;8.948;2023-02-28T07:44:25;11.27;;;6.75;;
72273;SDS011;60208;48.692;8.948;2023-02-28T07:46:50;8.40;;;6.50;;
72273;SDS011;60208;48.692;8.948;2023-02-28T07:49:16;9.27;;;6.72;;
72273;SDS011;60208;48.692;8.948;2023-02-28T07:51:41;10.40;;;7.10;;
72273;SDS011;60208;48.692;8.948;2023-02-28T07:54:06;10.70;;;7.10;;
72273;SDS011;60208;48.692;8.948;2023-02-28T07:56:32;12.38;;;7.60;;
72273;SDS011;60208;48.692;8.948;2023-02-28T07:58:58;11.00;;;7.35;;
72273;SDS011;60208;48.692;8.948;2023-02-28T08:01:23;10.02;;;7.50;;
72273;SDS011;60208;48.692;8.948;2023-02-28T08:03:49;11.38;;;7.75;;
72273;SDS011;60208;48.692;8.948;2023-02-28T08:06:16;12.48;;;7.80;;
72273;SDS011;60208;48.692;8.948;2023-02-28T08:08:43;12.48;;;7.90;;
72273;SDS011;60208;48.692;8.948;2023-02-28T08:11:09;9.57;;;7.68;;
72273;SDS011;60208;48.692;8.948;2023-02-28T08:13:34;11.57;;;7.88;;
72273;SDS011;60208;48.692;8.948;2023-02-28T08:16:00;11.55;;;8.13;;
72273;SDS011;60208;48.692;8.948;2023-02-28T08:18:26;9.80;;;7.40;;
72273;SDS011;60208;48.692;8.948;2023-02-28T08:20:52;11.50;;;7.38;;
72273;SDS011;60208;48.692;8.948;2023-02-28T08:23:17;12.10;;;7.97;;
72273;SDS011;60208;48.692;8.948;2023-02-28T08:25:42;11.18;;;8.07;;
72273;SDS011;60208;48.692;8.948;2023-02-28T08:28:07;12.43;;;8.32;;
72273;SDS011;60208;48.692;8.948;2023-02-28T08:30:33;10.98;;;8.32;;
72273;SDS011;60208;48.692;8.948;2023-02-28T08:33:01;11.65;;;8.30;;
72273;SDS011;60208;48.692;8.948;2023-02-28T08:35:30;11.38;;;8.43;;
72273;SDS011;60208;48.692;8.948;2023-02-28T08:37:55;12.90;;;8.68;;
72273;SDS011;60208;48.692;8.948;2023-02-28T08:40:20;11.43;;;8.35;;
72273;SDS011;60208;48.692;8.948;2023-02-28T08:42:46;13.65;;;8.50;;
72273;SDS011;60208;48.692;8.948;2023-02-28T08:45:13;12.25;;;8.60;;
72273;SDS011;60208;48.692;8.948;2023-02-28T08:47:39;13.00;;;8.65;;
72273;SDS011;60208;48.692;8.948;2023-02-28T08:50:04;15.95;;;8.50;;
72273;SDS011;60208;48.692;8.948;2023-02-28T08:52:30;10.88;;;7.68;;
72273;SDS011;60208;48.692;8.948;2023-02-28T08:54:55;14.27;;;8.35;;
72273;SDS011;60208;48.692;8.948;2023-02-28T08:57:20;10.75;;;8.20;;
72273;SDS011;60208;48.692;8.948;2023-02-28T08:59:46;11.73;;;8.50;;
72273;SDS011;60208;48.692;8.948;2023-02-28T09:02:14;14.48;;;8.80;;
72273;SDS011;60208;48.692;8.948;2023-02-28T09:04:40;16.10;;;8.50;;
72273;SDS011;60208;48.692;8.948;2023-02-28T09:07:06;11.50;;;8.48;;
72273;SDS011;60208;48.692;8.948;2023-02-28T09:09:32;17.70;;;8.48;;
72273;SDS011;60208;48.692;8.948;2023-02-28T09:11:57;11.25;;;8.07;;
72273;SDS011;60208;48.692;8.948;2023-02-28T09:14:23;10.63;;;8.23;;
72273;SDS011;60208;48.692;8.948;2023-02-28T09:16:48;13.70;;;9.27;;
72273;SDS011;60208;48.692;8.948;2023-02-28T09:19:14;13.02;;;9.25;;
72273;SDS011;60208;48.692;8.948;2023-02-28T09:21:39;15.70;;;8.98;;
72273;SDS011;60208;48.692;8.948;2023-02-28T09:24:05;12.10;;;8.25;;
72273;SDS011;60208;48.692;8.948;2023-02-28T09:26:31;13.70;;;8.90;;
72273;SDS011;60208;48.692;8.948;2023-02-28T09:28:56;13.20;;;8.32;;
72273;SDS011;60208;48.692;8.948;2023-02-28T09:31:24;17.55;;;10.15;;
72273;SDS011;60208;48.692;8.948;2023-02-28T09:33:52;28.48;;;9.75;;
72273;SDS011;60208;48.692;8.948;2023-02-28T09:36:19;13.55;;;8.63;;
72273;SDS011;60208;48.692;8.948;2023-02-28T09:38:45;13.45;;;8.43;;
72273;SDS011;60208;48.692;8.948;2023-02-28T09:41:21;12.00;;;8.23;;
72273;SDS011;60208;48.692;8.948;2023-02-28T09:43:59;15.95;;;8.45;;
72273;SDS011;60208;48.692;8.948;2023-02-28T09:49:06;17.75;;;9.80;;
72273;SDS011;60208;48.692;8.948;2023-02-28T09:54:13;14.00;;;8.73;;
72273;SDS011;60208;48.692;8.948;2023-02-28T10:05:40;54.35;;;11.30;;
72273;SDS011;60208;48.692;8.948;2023-02-28T10:08:10;13.65;;;8.63;;
72273;SDS011;60208;48.692;8.948;2023-02-28T10:10:49;15.65;;;9.82;;
72273;SDS011;60208;48.692;8.948;2023-02-28T10:19:33;13.25;;;9.18;;
72273;SDS011;60208;48.692;8.948;2023-02-28T10:24:58;12.60;;;8.90;;
72273;SDS011;60208;48.692;8.948;2023-02-28T10:27:34;15.32;;;9.68;;
72273;SDS011;60208;48.692;8.948;2023-02-28T10:32:50;17.10;;;10.30;;
72273;SDS011;60208;48.692;8.948;2023-02-28T10:35:22;18.73;;;9.93;;
72273;SDS011;60208;48.692;8.948;2023-02-28T10:37:50;16.75;;;9.93;;
72273;SDS011;60208;48.692;8.948;2023-02-28T10:46:33;15.15;;;9.18;;
72273;SDS011;60208;48.692;8.948;2023-02-28T10:49:03;16.35;;;9.35;;
72273;SDS011;60208;48.692;8.948;2023-02-28T10:51:55;16.38;;;8.68;;
72273;SDS011;60208;48.692;8.948;2023-02-28T11:00:07;13.48;;;9.48;;
72273;SDS011;60208;48.692;8.948;2023-02-28T11:02:44;18.20;;;9.38;;
72273;SDS011;60208;48.692;8.948;2023-02-28T11:08:15;15.15;;;10.38;;
72273;SDS011;60208;48.692;8.948;2023-02-28T11:11:02;12.63;;;9.10;;
72273;SDS011;60208;48.692;8.948;2023-02-28T11:13:51;16.02;;;11.15;;
72273;SDS011;60208;48.692;8.948;2023-02-28T11:16:40;16.63;;;9.85;;
72273;SDS011;60208;48.692;8.948;2023-02-28T11:19:16;10.73;;;8.50;;
72273;SDS011;60208;48.692;8.948;2023-02-28T11:22:02;13.38;;;9.63;;
72273;SDS011;60208;48.692;8.948;2023-02-28T11:27:00;14.55;;;9.20;;
72273;SDS011;60208;48.692;8.948;2023-02-28T11:29:32;19.52;;;9.13;;
72273;SDS011;60208;48.692;8.948;2023-02-28T11:32:13;13.15;;;9.48;;
72273;SDS011;60208;48.692;8.948;2023-02-28T11:35:34;12.60;;;8.75;;
72273;SDS011;60208;48.692;8.948;2023-02-28T11:37:50;12.80;;;8.93;;
72273;SDS011;60208;48.692;8.948;2023-02-28T11:40:28;14.98;;;9.15;;
72273;SDS011;60208;48.692;8.948;2023-02-28T11:47:02;16.42;;;8.73;;
72273;SDS011;60208;48.692;8.948;2023-02-28T11:50:03;17.25;;;9.20;;
72273;SDS011;60208;48.692;8.948;2023-02-28T11:53:22;16.25;;;9.23;;
72273;SDS011;60208;48.692;8.948;2023-02-28T11:55:49;11.65;;;8.48;;
72273;SDS011;60208;48.692;8.948;2023-02-28T12:20:39;11.23;;;8.10;;
72273;SDS011;60208;48.692;8.948;2023-02-28T12:26:31;9.27;;;7.65;;
72273;SDS011;60208;48.692;8.948;2023-02-28T12:29:12;11.40;;;8.40;;
72273;SDS011;60208;48.692;8.948;2023-02-28T12:31:45;9.38;;;8.23;;
72273;SDS011;60208;48.692;8.948;2023-02-28T12:35:13;28.00;;;10.02;;
72273;SDS011;60208;48.692;8.948;2023-02-28T12:37:43;10.93;;;8.07;;
72273;SDS011;60208;48.692;8.948;2023-02-28T12:40:12;8.07;;;7.22;;
72273;SDS011;60208;48.692;8.948;2023-02-28T12:42:42;19.30;;;8.77;;
72273;SDS011;60208;48.692;8.948;2023-02-28T12:47:44;9.27;;;7.65;;
72273;SDS011;60208;48.692;8.948;2023-02-28T12:50:16;10.02;;;7.68;;
72273;SDS011;60208;48.692;8.948;2023-02-28T13:11:31;10.43;;;7.35;;
72273;SDS011;60208;48.692;8.948;2023-02-28T13:16:59;7.78;;;7.07;;
72273;SDS011;60208;48.692;8.948;2023-02-28T13:19:33;9.63;;;6.70;;
72273;SDS011;60208;48.692;8.948;2023-02-28T13:24:53;11.60;;;7.30;;
72273;SDS011;60208;48.692;8.948;2023-02-28T13:29:49;20.95;;;7.75;;
72273;SDS011;60208;48.692;8.948;2023-02-28T13:47:40;8.02;;;6.90;;
72273;SDS011;60208;48.692;8.948;2023-02-28T13:50:31;10.38;;;6.68;;
72273;SDS011;60208;48.692;8.948;2023-02-28T13:59:42;13.23;;;7.25;;
72273;SDS011;60208;48.692;8.948;2023-02-28T14:05:16;7.30;;;6.60;;
72273;SDS011;60208;48.692;8.948;2023-02-28T14:08:01;12.80;;;7.68;;
72273;SDS011;60208;48.692;8.948;2023-02-28T14:10:47;8.85;;;7.60;;
72273;SDS011;60208;48.692;8.948;2023-02-28T14:16:34;8.50;;;7.60;;
72273;SDS011;60208;48.692;8.948;2023-02-28T14:23:14;9.00;;;7.30;;
72273;SDS011;60208;48.692;8.948;2023-02-28T14:26:03;9.83;;;7.27;;
72273;SDS011;60208;48.692;8.948;2023-02-28T14:31:44;9.40;;;7.88;;
72273;SDS011;60208;48.692;8.948;2023-02-28T14:37:36;18.75;;;8.82;;
72273;SDS011;60208;48.692;8.948;2023-02-28T14:47:27;9.18;;;7.43;;
72273;SDS011;60208;48.692;8.948;2023-02-28T14:50:38;10.27;;;7.32;;
72273;SDS011;60208;48.692;8.948;2023-02-28T14:53:22;8.75;;;7.88;;
72273;SDS011;60208;48.692;8.948;2023-02-28T14:59:23;10.88;;;7.70;;
72273;SDS011;60208;48.692;8.948;2023-02-28T15:12:21;11.20;;;7.85;;
72273;SDS011;60208;48.692;8.948;2023-02-28T15:15:20;10.75;;;7.90;;
72273;SDS011;60208;48.692;8.948;2023-02-28T15:21:18;12.02;;;7.88;;
72273;SDS011;60208;48.692;8.948;2023-02-28T15:27:31;16.65;;;8.95;;
72273;SDS011;60208;48.692;8.948;2023-02-28T15:33:52;12.15;;;7.68;;
72273;SDS011;60208;48.692;8.948;2023-02-28T15:36:39;9.93;;;7.85;;
72273;SDS011;60208;48.692;8.948;2023-02-28T15:39:33;11.18;;;8.07;;
72273;SDS011;60208;48.692;8.948;2023-02-28T15:42:58;8.35;;;7.47;;
72273;SDS011;60208;48.692;8.948;2023-02-28T15:45:47;11.30;;;8.43;;
72273;SDS011;60208;48.692;8.948;2023-02-28T15:48:26;8.30;;;7.50;;
72273;SDS011;60208;48.692;8.948;2023-02-28T15:53:58;15.45;;;8.88;;
72273;SDS011;60208;48.692;8.948;2023-02-28T15:56:28;10.95;;;8.30;;
72273;SDS011;60208;48.692;8.948;2023-02-28T15:58:58;10.55;;;8.43;;
72273;SDS011;60208;48.692;8.948;2023-02-28T16:01:26;12.50;;;8.55;;
72273;SDS011;60208;48.692;8.948;2023-02-28T16:04:19;10.15;;;8.13;;
72273;SDS011;60208;48.692;8.948;2023-02-28T16:07:05;15.30;;;9.02;;
72273;SDS011;60208;48.692;8.948;2023-02-28T16:09:40;11.50;;;8.27;;
72273;SDS011;60208;48.692;8.948;2023-02-28T16:12:48;9.98;;;7.43;;
72273;SDS011;60208;48.692;8.948;2023-02-28T16:15:30;25.02;;;9.88;;
72273;SDS011;60208;48.692;8.948;2023-02-28T16:18:22;16.58;;;9.18;;
72273;SDS011;60208;48.692;8.948;2023-02-28T16:21:22;13.95;;;9.27;;
72273;SDS011;60208;48.692;8.948;2023-02-28T16:24:36;21.92;;;12.48;;
72273;SDS011;60208;48.692;8.948;2023-02-28T16:27:05;20.33;;;13.10;;
72273;SDS011;60208;48.692;8.948;2023-02-28T16:29:57;12.50;;;8.75;;
72273;SDS011;60208;48.692;8.948;2023-02-28T16:32:22;11.30;;;8.48;;
72273;SDS011;60208;48.692;8.948;2023-02-28T16:38:16;11.75;;;9.07;;
72273;SDS011;60208;48.692;8.948;2023-02-28T16:40:45;11.85;;;9.35;;
72273;SDS011;60208;48.692;8.948;2023-02-28T16:43:17;21.05;;;10.27;;
72273;SDS011;60208;48.692;8.948;2023-02-28T16:55:33;12.40;;;9.20;;
72273;SDS011;60208;48.692;8.948;2023-02-28T17:04:18;15.35;;;10.77;;
72273;SDS011;60208;48.692;8.948;2023-02-28T17:14:07;13.98;;;10.60;;
72273;SDS011;60208;48.692;8.948;2023-02-28T17:20:25;17.55;;;11.38;;
72273;SDS011;60208;48.692;8.948;2023-02-28T17:29:32;38.75;;;24.63;;
72273;SDS011;60208;48.692;8.948;2023-02-28T17:32:23;19.05;;;14.15;;
72273;SDS011;60208;48.692;8.948;2023-02-28T17:34:54;16.20;;;12.07;;
72273;SDS011;60208;48.692;8.948;2023-02-28T17:39:57;14.20;;;10.00;;
72273;SDS011;60208;48.692;8.948;2023-02-28T17:42:23;15.23;;;10.30;;
72273;SDS011;60208;48.692;8.948;2023-02-28T17:44:48;16.15;;;10.80;;
72273;SDS011;60208;48.692;8.948;2023-02-28T17:47:13;16.35;;;10.75;;
72273;SDS011;60208;48.692;8.948;2023-02-28T17:49:38;16.90;;;11.70;;
72273;SDS011;60208;48.692;8.948;2023-02-28T17:52:04;15.82;;;11.23;;
72273;SDS011;60208;48.692;8.948;2023-02-28T17:54:29;16.45;;;11.38;;
72273;SDS011;60208;48.692;8.948;2023-02-28T17:56:55;16.52;;;11.45;;
72273;SDS011;60208;48.692;8.948;2023-02-28T17:59:20;16.15;;;11.30;;
72273;SDS011;60208;48.692;8.948;2023-02-28T18:01:46;15.95;;;11.02;;
72273;SDS011;60208;48.692;8.948;2023-02-28T18:04:11;14.10;;;10.55;;
72273;SDS011;60208;48.692;8.948;2023-02-28T18:06:37;20.85;;;10.98;;
72273;SDS011;60208;48.692;8.948;2023-02-28T18:09:12;22.27;;;11.73;;
72273;SDS011;60208;48.692;8.948;2023-02-28T18:11:55;16.23;;;11.10;;
72273;SDS011;60208;48.692;8.948;2023-02-28T18:14:24;15.80;;;11.15;;
72273;SDS011;60208;48.692;8.948;2023-02-28T18:16:50;21.85;;;12.75;;
72273;SDS011;60208;48.692;8.948;2023-02-28T18:19:17;19.75;;;12.40;;
72273;SDS011;60208;48.692;8.948;2023-02-28T18:21:43;17.35;;;12.25;;
72273;SDS011;60208;48.692;8.948;2023-02-28T18:24:10;18.50;;;11.80;;
72273;SDS011;60208;48.692;8.948;2023-02-28T18:26:36;16.63;;;10.75;;
72273;SDS011;60208;48.692;8.948;2023-02-28T18:29:02;16.77;;;10.98;;
72273;SDS011;60208;48.692;8.948;2023-02-28T18:31:29;15.05;;;10.93;;
72273;SDS011;60208;48.692;8.948;2023-02-28T18:33:56;29.17;;;11.35;;
72273;SDS011;60208;48.692;8.948;2023-02-28T18:36:22;16.73;;;11.13;;
72273;SDS011;60208;48.692;8.948;2023-02-28T18:38:48;19.50;;;11.45;;
72273;SDS011;60208;48.692;8.948;2023-02-28T18:41:14;17.83;;;12.00;;
72273;SDS011;60208;48.692;8.948;2023-02-28T18:43:40;17.13;;;11.60;;
72273;SDS011;60208;48.692;8.948;2023-02-28T18:46:07;16.35;;;11.55;;
72273;SDS011;60208;48.692;8.948;2023-02-28T18:48:34;16.98;;;11.73;;
72273;SDS011;60208;48.692;8.948;2023-02-28T18:51:19;17.88;;;12.35;;
72273;SDS011;60208;48.692;8.948;2023-02-28T18:53:46;17.58;;;11.80;;
72273;SDS011;60208;48.692;8.948;2023-02-28T18:56:12;17.85;;;12.50;;
72273;SDS011;60208;48.692;8.948;2023-02-28T18:58:39;15.68;;;11.73;;
72273;SDS011;60208;48.692;8.948;2023-02-28T19:01:11;15.57;;;11.75;;
72273;SDS011;60208;48.692;8.948;2023-02-28T19:03:42;22.17;;;12.13;;
72273;SDS011;60208;48.692;8.948;2023-02-28T19:06:08;16.92;;;12.13;;
72273;SDS011;60208;48.692;8.948;2023-02-28T19:08:34;16.20;;;12.18;;
72273;SDS011;60208;48.692;8.948;2023-02-28T19:11:05;17.35;;;12.88;;